Time;durP1;ratioP1;P1;durP2;ratioP2;P2;SDS_P1;SDS_P2;PMS_P1;PMS_P2;Temp;Humidity;BMP_temperature;BMP_pressure;BME280_temperature;BME280_humidity;BME280_pressure;Samples;Min_cycle;Max_cycle;Signal;HPM_P1;HPM_P2
2022/08/20 00:00:52;;;;;;;17.92;16.05;;;;;;;18.72;100.00;101460.91;5045188;28;20464;-78
2022/08/20 00:03:30;;;;;;;21.30;16.02;;;;;;;18.71;100.00;101468.06;5044852;28;20036;-78
2022/08/20 00:06:03;;;;;;;20.67;15.70;;;;;;;18.73;100.00;101460.75;5046639;28;20028;-78
2022/08/20 00:08:30;;;;;;;19.27;16.42;;;;;;;18.74;100.00;101456.25;5047506;28;20095;-78
2022/08/20 00:10:57;;;;;;;20.90;16.42;;;;;;;18.76;100.00;101454.28;5048106;28;20142;-79
2022/08/20 00:13:27;;;;;;;24.55;16.30;;;;;;;18.77;100.00;101446.13;5039889;28;20021;-78
2022/08/20 00:15:53;;;;;;;18.95;16.27;;;;;;;18.74;100.00;101448.25;5046259;28;20021;-78
2022/08/20 00:18:20;;;;;;;19.52;15.25;;;;;;;18.74;100.00;101446.44;5046078;28;20116;-78
2022/08/20 00:20:49;;;;;;;19.17;15.65;;;;;;;18.74;100.00;101451.75;5028143;28;20538;-78
2022/08/20 00:23:15;;;;;;;19.60;15.95;;;;;;;18.78;100.00;101437.13;5048156;28;20086;-78
2022/08/20 00:25:41;;;;;;;19.80;15.75;;;;;;;18.77;100.00;101446.13;5047935;28;20024;-78
2022/08/20 00:28:07;;;;;;;17.88;15.40;;;;;;;18.74;100.00;101435.75;5047182;28;20032;-78
2022/08/20 00:30:33;;;;;;;18.00;14.98;;;;;;;18.81;100.00;101445.81;5045647;28;20026;-78
2022/08/20 00:33:03;;;;;;;20.17;15.63;;;;;;;18.77;100.00;101446.13;5032290;28;20024;-77
2022/08/20 00:35:34;;;;;;;20.30;15.32;;;;;;;18.73;100.00;101444.75;5048618;28;20024;-78
2022/08/20 00:37:59;;;;;;;18.23;16.05;;;;;;;18.74;100.00;101441.09;5045819;28;20079;-79
2022/08/20 00:40:33;;;;;;;17.65;15.25;;;;;;;18.74;100.00;101449.09;5050147;28;20021;-79
2022/08/20 00:43:01;;;;;;;20.02;16.20;;;;;;;18.70;100.00;101445.06;5049009;28;20195;-79
2022/08/20 00:45:30;;;;;;;17.00;15.20;;;;;;;18.75;100.00;101444.59;5051636;28;20101;-79
2022/08/20 00:47:59;;;;;;;18.77;15.43;;;;;;;18.78;100.00;101442.47;5051750;28;20037;-79
2022/08/20 00:50:31;;;;;;;18.23;15.23;;;;;;;18.75;100.00;101445.44;5049801;28;20111;-79
2022/08/20 00:52:58;;;;;;;20.30;15.52;;;;;;;18.77;100.00;101453.28;5051046;28;20433;-80
2022/08/20 00:55:25;;;;;;;17.23;14.95;;;;;;;18.73;100.00;101444.75;5051388;28;20032;-80
2022/08/20 00:57:55;;;;;;;20.92;14.98;;;;;;;18.72;100.00;101444.91;5050949;28;20053;-79
2022/08/20 01:00:29;;;;;;;18.90;14.48;;;;;;;18.69;100.00;101454.03;5050762;28;20048;-78
2022/08/20 01:02:55;;;;;;;15.02;13.43;;;;;;;18.70;100.00;101452.22;5049482;28;20021;-79
2022/08/20 01:05:24;;;;;;;18.73;14.57;;;;;;;18.66;100.00;101449.00;5050154;28;20049;-79
2022/08/20 01:07:53;;;;;;;19.48;15.90;;;;;;;18.64;100.00;101451.00;5051441;28;20122;-79
2022/08/20 01:10:23;;;;;;;17.30;15.40;;;;;;;18.63;100.00;101454.66;5050576;28;20051;-79
2022/08/20 01:12:52;;;;;;;21.73;16.10;;;;;;;18.63;100.00;101454.66;5049753;28;20029;-79
2022/08/20 01:15:21;;;;;;;19.95;16.08;;;;;;;18.62;100.00;101450.31;5049697;28;20036;-79
2022/08/20 01:17:50;;;;;;;21.40;17.10;;;;;;;18.61;100.00;101445.94;5049759;28;20029;-80
2022/08/20 01:20:21;;;;;;;21.25;16.60;;;;;;;18.61;100.00;101448.59;5049524;28;20025;-78
2022/08/20 01:23:31;;;;;;;18.75;16.33;;;;;;;18.65;100.00;101444.69;5050229;28;20021;-80
2022/08/20 01:26:13;;;;;;;24.23;18.42;;;;;;;18.63;100.00;101452.00;5050756;28;20502;-80
2022/08/20 01:29:19;;;;;;;24.33;18.63;;;;;;;18.66;100.00;101450.84;5049585;28;20029;-80
2022/08/20 01:31:44;;;;;;;23.45;18.10;;;;;;;18.64;100.00;101459.00;5031774;28;20021;-80
2022/08/20 01:34:13;;;;;;;20.13;18.02;;;;;;;18.64;100.00;101461.66;5031304;28;20076;-80
2022/08/20 01:36:42;;;;;;;21.38;17.55;;;;;;;18.64;100.00;101458.16;5032168;28;20381;-80
2022/08/20 01:39:12;;;;;;;23.15;18.65;;;;;;;18.61;100.00;101453.09;5029319;28;20017;-80
2022/08/20 01:41:59;;;;;;;23.67;17.77;;;;;;;18.63;100.00;101449.31;5031701;28;20030;-79
2022/08/20 01:44:25;;;;;;;21.88;18.20;;;;;;;18.61;100.00;101451.28;5034189;28;20021;-79
2022/08/20 01:46:54;;;;;;;24.30;19.55;;;;;;;18.61;100.00;101453.94;5051092;28;20479;-80
2022/08/20 01:49:27;;;;;;;24.02;18.92;;;;;;;18.57;100.00;101452.56;5051715;28;20029;-80
2022/08/20 01:51:53;;;;;;;;;;;;;;;18.69;100.00;101462.03;5048578;28;20032;-79
2022/08/20 01:54:20;;;;;;;23.05;18.67;;;;;;;18.58;100.00;101451.56;5048706;28;19909;-80
2022/08/20 01:56:57;;;;;;;21.92;17.63;;;;;;;18.57;100.00;101455.22;5050616;28;20037;-80
2022/08/20 01:59:23;;;;;;;25.90;18.60;;;;;;;18.52;100.00;101460.19;5049114;28;20056;-78
2022/08/20 02:01:49;;;;;;;25.30;18.83;;;;;;;18.50;100.00;101462.16;5046937;28;20436;-78
2022/08/20 02:04:16;;;;;;;24.38;19.58;;;;;;;18.53;100.00;101453.84;5046745;28;20028;-80
2022/08/20 02:06:48;;;;;;;26.58;20.02;;;;;;;18.49;100.00;101457.81;5049826;28;20033;-80
2022/08/20 02:09:14;;;;;;;27.90;20.87;;;;;;;18.50;100.00;101453.31;5049527;28;20116;-81
2022/08/20 02:11:40;;;;;;;28.10;20.75;;;;;;;18.49;100.00;101455.16;5050373;28;20445;-78
2022/08/20 02:14:07;;;;;;;27.77;20.38;;;;;;;18.44;100.00;101455.59;5049306;28;20043;-80
2022/08/20 02:16:37;;;;;;;26.45;20.35;;;;;;;18.44;100.00;101454.75;5049880;28;20101;-79
2022/08/20 02:19:11;;;;;;;27.25;20.10;;;;;;;18.44;100.00;101460.09;5048273;28;20028;-79
2022/08/20 02:21:49;;;;;;;26.23;20.20;;;;;;;18.45;100.00;101461.75;5049321;28;20462;-79
2022/08/20 02:24:15;;;;;;;27.45;20.38;;;;;;;18.40;100.00;101459.53;5049093;28;20017;-79
2022/08/20 02:26:42;;;;;;;27.63;20.23;;;;;;;18.41;100.00;101460.34;5049703;28;20123;-79
2022/08/20 02:29:09;;;;;;;29.63;19.83;;;;;;;18.37;100.00;101474.97;5047943;28;20025;-79
2022/08/20 02:31:37;;;;;;;24.40;18.45;;;;;;;18.33;100.00;101466.44;5051040;28;20032;-80
2022/08/20 02:34:04;;;;;;;27.40;19.23;;;;;;;18.33;100.00;101458.44;5049005;28;20123;-80
2022/08/20 02:36:30;;;;;;;30.42;18.73;;;;;;;18.34;100.00;101456.63;5048575;28;20490;-79
2022/08/20 02:38:59;;;;;;;24.60;18.17;;;;;;;18.30;100.00;101455.25;5048933;28;20048;-78
2022/08/20 02:41:24;;;;;;;26.90;18.65;;;;;;;18.24;100.00;101454.00;5050784;28;20024;-78
2022/08/20 02:43:50;;;;;;;29.23;19.40;;;;;;;18.27;100.00;101452.88;5050856;28;20390;-79
2022/08/20 02:46:17;;;;;;;29.27;18.45;;;;;;;18.22;100.00;101465.81;5050375;28;20107;-81
2022/08/20 02:48:43;;;;;;;32.17;20.42;;;;;;;18.19;100.00;101471.44;5050366;28;20021;-80
2022/08/20 02:51:09;;;;;;;30.90;21.45;;;;;;;18.19;100.00;101472.28;5049266;28;20043;-80
2022/08/20 02:53:37;;;;;;;32.53;21.65;;;;;;;18.17;100.00;101474.25;5049431;28;20040;-79
2022/08/20 02:56:04;;;;;;;34.60;24.13;;;;;;;18.16;100.00;101462.75;5048728;28;20114;-79
2022/08/20 02:58:30;;;;;;;34.47;23.35;;;;;;;18.13;100.00;101467.53;5048252;28;20033;-79
2022/08/20 03:00:58;;;;;;;32.95;24.75;;;;;;;18.15;100.00;101461.06;5050032;28;20031;-79
2022/08/20 03:03:24;;;;;;;37.30;25.83;;;;;;;18.13;100.00;101463.03;5049139;28;20033;-78
2022/08/20 03:05:56;;;;;;;36.15;25.45;;;;;;;18.12;100.00;101466.69;5049596;28;20039;-80
2022/08/20 03:08:22;;;;;;;34.25;26.60;;;;;;;18.08;100.00;101467.97;5048784;28;20029;-77
2022/08/20 03:10:49;;;;;;;35.45;26.70;;;;;;;18.09;100.00;101466.16;5047387;28;20029;-80
2022/08/20 03:13:15;;;;;;;38.50;27.77;;;;;;;18.06;100.00;101467.28;5049086;28;20418;-78
2022/08/20 03:15:45;;;;;;;33.17;26.77;;;;;;;18.03;100.00;101467.59;5049503;28;20490;-80
2022/08/20 03:18:11;;;;;;;38.72;26.77;;;;;;;18.06;100.00;101472.63;5048246;28;20501;-79
2022/08/20 03:20:38;;;;;;;37.67;26.90;;;;;;;18.02;100.00;101473.06;5048115;28;20021;-80
2022/08/20 03:23:04;;;;;;;36.35;26.48;;;;;;;18.05;100.00;101470.09;5080991;28;20025;-78
2022/08/20 03:25:30;;;;;;;33.90;26.02;;;;;;;18.04;100.00;101471.94;5046793;28;20516;-79
2022/08/20 03:27:56;;;;;;;35.63;25.58;;;;;;;17.97;100.00;101472.63;5048995;28;20103;-80
2022/08/20 03:30:24;;;;;;;36.88;24.58;;;;;;;17.94;100.00;101481.75;5048455;28;20116;-80
2022/08/20 03:32:50;;;;;;;31.73;23.20;;;;;;;17.96;100.00;101474.44;5046995;28;20070;-79
2022/08/20 03:35:17;;;;;;;31.60;23.38;;;;;;;17.89;100.00;101480.50;5046136;28;20036;-80
2022/08/20 03:37:43;;;;;;;37.75;23.40;;;;;;;17.84;100.00;101475.63;5048160;28;20021;-78
2022/08/20 03:40:14;;;;;;;35.53;22.83;;;;;;;17.80;100.00;101483.06;5047486;28;20021;-79
2022/08/20 03:42:40;;;;;;;33.58;22.52;;;;;;;17.77;100.00;101480.69;5050146;28;20513;-78
2022/08/20 03:45:09;;;;;;;36.47;21.45;;;;;;;17.74;100.00;101488.97;5049063;28;20028;-80
2022/08/20 03:47:34;;;;;;;37.47;22.83;;;;;;;17.74;100.00;101481.00;5050960;28;20380;-80
2022/08/20 03:50:01;;;;;;;38.30;23.27;;;;;;;17.70;100.00;101484.09;5050585;28;20081;-78
2022/08/20 03:52:28;;;;;;;36.67;22.67;;;;;;;17.70;100.00;101482.25;5048502;28;20048;-78
2022/08/20 03:54:54;;;;;;;29.77;21.15;;;;;;;17.68;100.00;101484.22;5049257;28;20044;-80
2022/08/20 03:57:20;;;;;;;35.28;22.38;;;;;;;17.67;100.00;101481.72;5049766;28;20032;-78
2022/08/20 03:59:45;;;;;;;35.80;22.10;;;;;;;17.71;100.00;101488.44;5050984;28;20025;-79
2022/08/20 04:02:11;;;;;;;38.63;23.38;;;;;;;17.64;100.00;101487.28;5049215;28;20376;-78
2022/08/20 04:04:40;;;;;;;37.08;22.73;;;;;;;17.65;100.00;101491.63;5048597;28;20095;-79
2022/08/20 04:07:11;;;;;;;32.50;21.35;;;;;;;17.66;100.00;101488.00;5047775;28;20067;-78
2022/08/20 04:09:38;;;;;;;36.53;21.50;;;;;;;17.65;100.00;101486.31;5045217;28;20074;-80
2022/08/20 04:12:04;;;;;;;31.45;22.33;;;;;;;17.63;100.00;101491.78;5048338;28;20024;-78
2022/08/20 04:14:29;;;;;;;35.35;22.33;;;;;;;17.60;100.00;101496.53;5048124;28;20029;-78
2022/08/20 04:16:55;;;;;;;34.15;22.35;;;;;;;17.63;100.00;101498.91;5053254;28;20032;-78
2022/08/20 04:19:20;;;;;;;33.08;22.70;;;;;;;17.54;100.00;101497.94;5050796;28;20157;-78
2022/08/20 04:21:47;;;;;;;33.80;23.38;;;;;;;17.54;100.00;101508.56;5051647;28;20029;-78
2022/08/20 04:24:14;;;;;;;36.45;25.02;;;;;;;17.49;100.00;101495.69;5051709;28;20119;-78
2022/08/20 04:26:39;;;;;;;35.35;27.05;;;;;;;17.48;100.00;101502.00;5051708;28;20441;-78
2022/08/20 04:29:04;;;;;;;42.08;28.55;;;;;;;17.46;100.00;101505.78;5049475;28;20028;-78
2022/08/20 04:31:32;;;;;;;42.20;30.67;;;;;;;17.43;100.00;101506.06;5050790;28;20071;-78
2022/08/20 04:34:02;;;;;;;43.70;30.67;;;;;;;17.45;100.00;101520.91;5051652;28;20125;-78
2022/08/20 04:36:28;;;;;;;45.85;31.80;;;;;;;17.43;100.00;101506.91;5050812;28;20108;-79
2022/08/20 04:38:53;;;;;;;43.70;32.00;;;;;;;17.48;100.00;101514.47;5050148;28;20557;-79
2022/08/20 04:41:20;;;;;;;45.42;33.15;;;;;;;17.47;100.00;101521.63;5052420;28;20037;-79
2022/08/20 04:43:45;;;;;;;41.30;32.28;;;;;;;17.49;100.00;101516.16;5053363;28;20045;-79
2022/08/20 04:46:12;;;;;;;44.58;32.22;;;;;;;17.45;100.00;101526.25;5051611;28;20298;-78
2022/08/20 04:48:39;;;;;;;41.35;31.92;;;;;;;17.44;100.00;101529.88;5051745;28;20029;-78
2022/08/20 04:51:06;;;;;;;47.90;32.13;;;;;;;17.44;100.00;101534.38;5051602;28;20474;-81
2022/08/20 04:53:33;;;;;;;45.58;32.38;;;;;;;17.41;100.00;101532.00;5052507;28;20100;-78
2022/08/20 04:56:00;;;;;;;48.47;33.10;;;;;;;17.34;100.00;101529.06;5050056;28;20064;-81
2022/08/20 04:58:32;;;;;;;47.20;32.38;;;;;;;17.34;100.00;101534.38;5051053;28;20021;-79
2022/08/20 05:01:09;;;;;;;39.92;31.83;;;;;;;17.33;100.00;101534.50;5051135;28;20548;-80
2022/08/20 05:03:37;;;;;;;41.88;30.95;;;;;;;17.31;100.00;101539.97;5051303;28;20028;-79
2022/08/20 05:06:07;;;;;;;45.38;31.58;;;;;;;17.31;100.00;101539.97;5050921;28;20025;-80
2022/08/20 05:08:32;;;;;;;43.00;31.42;;;;;;;17.29;100.00;101544.59;5050030;28;20059;-80
2022/08/20 05:10:58;;;;;;;46.33;33.08;;;;;;;17.25;100.00;101545.84;5049175;28;20021;-80
2022/08/20 05:13:25;;;;;;;41.55;31.58;;;;;;;17.22;100.00;101548.81;5050469;28;20025;-80
2022/08/20 05:15:51;;;;;;;43.30;29.52;;;;;;;17.20;100.00;101548.06;5051394;28;20033;-80
2022/08/20 05:18:19;;;;;;;44.22;28.92;;;;;;;17.17;100.00;101543.88;5048662;28;20041;-79
2022/08/20 05:20:46;;;;;;;43.35;27.52;;;;;;;17.11;100.00;101538.28;5050060;28;20028;-79
2022/08/20 05:23:13;;;;;;;37.25;27.42;;;;;;;17.05;100.00;101546.81;5049285;28;20021;-79
2022/08/20 05:25:40;;;;;;;43.58;28.75;;;;;;;17.03;100.00;101543.44;5049036;28;20039;-79
2022/08/20 05:28:11;;;;;;;46.65;29.90;;;;;;;17.03;100.00;101552.25;5050475;28;20484;-79
2022/08/20 05:30:39;;;;;;;49.80;29.90;;;;;;;17.04;100.00;101556.59;5050892;28;20339;-82
2022/08/20 05:33:06;;;;;;;48.03;31.55;;;;;;;17.08;100.00;101555.34;5050952;28;20442;-81
2022/08/20 05:35:34;;;;;;;45.45;31.02;;;;;;;17.15;100.00;101555.63;5051292;28;20060;-81
2022/08/20 05:38:00;;;;;;;43.65;31.00;;;;;;;17.15;100.00;101564.44;5048358;28;20386;-80
2022/08/20 05:40:27;;;;;;;48.97;31.88;;;;;;;17.16;100.00;101562.63;5051191;28;20029;-80
2022/08/20 05:42:53;;;;;;;49.47;31.27;;;;;;;17.22;100.00;101562.94;5048223;28;20041;-78
2022/08/20 05:45:20;;;;;;;48.78;31.45;;;;;;;17.15;100.00;101567.09;5051351;28;20029;-78
2022/08/20 05:47:47;;;;;;;50.15;33.15;;;;;;;17.17;100.00;101564.31;5052301;28;20048;-78
2022/08/20 05:50:16;;;;;;;51.20;34.88;;;;;;;17.21;100.00;101573.69;5051582;28;20055;-79
2022/08/20 05:52:42;;;;;;;49.30;34.42;;;;;;;17.21;100.00;101571.03;5049972;28;20100;-80
2022/08/20 05:55:12;;;;;;;47.60;35.80;;;;;;;17.26;100.00;101571.47;5052508;28;20115;-80
2022/08/20 05:57:38;;;;;;;55.53;36.03;;;;;;;17.27;100.00;101575.81;5052142;28;20045;-79
2022/08/20 06:00:10;;;;;;;50.58;35.72;;;;;;;17.32;100.00;101581.56;5049101;28;20074;-78
2022/08/20 06:05:19;;;;;;;56.30;36.88;;;;;;;17.33;100.00;101580.56;5050551;28;20048;-80
2022/08/20 06:07:45;;;;;;;60.60;37.45;;;;;;;17.33;100.00;101574.41;5048605;28;20021;-79
2022/08/20 06:10:10;;;;;;;56.88;37.40;;;;;;;17.31;100.00;101587.03;5050033;28;20024;-80
2022/08/20 06:12:36;;;;;;;58.95;38.30;;;;;;;17.33;100.00;101580.56;5049624;28;20025;-80
2022/08/20 06:15:03;;;;;;;53.72;37.67;;;;;;;17.36;100.00;101585.63;5049814;28;20394;-79
2022/08/20 06:17:32;;;;;;;62.38;38.78;;;;;;;17.32;100.00;101576.25;5048994;28;20055;-79
2022/08/20 06:20:00;;;;;;;58.63;37.33;;;;;;;17.44;100.00;101575.13;5049133;28;20025;-80
2022/08/20 06:22:25;;;;;;;55.53;38.50;;;;;;;17.47;100.00;101577.50;5050060;28;20108;-81
2022/08/20 06:24:50;;;;;;;59.20;36.50;;;;;;;17.47;100.00;101577.50;5049968;28;20375;-79
2022/08/20 06:27:16;;;;;;;60.55;39.25;;;;;;;17.46;100.00;101580.28;5048579;28;20542;-81
2022/08/20 06:29:42;;;;;;;57.45;37.97;;;;;;;17.39;100.00;101580.00;5049986;28;20035;-78
2022/08/20 06:32:07;;;;;;;58.28;38.53;;;;;;;17.46;100.00;101575.81;5047943;28;20024;-79
2022/08/20 06:34:35;;;;;;;64.22;38.42;;;;;;;17.53;100.00;101576.09;5049350;28;20036;-81
2022/08/20 06:37:01;;;;;;;58.90;38.42;;;;;;;17.56;100.00;101567.81;5049654;28;20022;-81
2022/08/20 06:39:29;;;;;;;60.00;38.42;;;;;;;17.57;100.00;101572.16;5049870;28;20027;-80
2022/08/20 06:41:57;;;;;;;62.58;38.70;;;;;;;17.57;100.00;101569.50;5051608;28;20017;-80
2022/08/20 06:44:23;;;;;;;58.15;40.50;;;;;;;17.59;100.00;101580.00;5050038;28;20040;-80
2022/08/20 06:46:48;;;;;;;55.50;38.70;;;;;;;17.68;100.00;101585.38;5052731;28;20443;-81
2022/08/20 06:49:14;;;;;;;58.22;39.08;;;;;;;17.72;100.00;101585.94;5051630;28;20029;-81
2022/08/20 06:51:39;;;;;;;56.20;39.90;;;;;;;17.77;100.00;101578.34;5050021;28;20063;-81
2022/08/20 06:54:04;;;;;;;59.63;40.08;;;;;;;17.73;100.00;101587.59;5047622;28;20075;-78
2022/08/20 06:56:32;;;;;;;60.20;42.42;;;;;;;17.73;100.00;101584.94;5048756;28;20479;-78
2022/08/20 06:58:58;;;;;;;57.20;42.13;;;;;;;17.73;100.00;101585.78;5048930;28;20052;-78
2022/08/20 07:01:23;;;;;;;67.03;41.92;;;;;;;17.76;100.00;101576.66;5051405;28;20025;-80
2022/08/20 07:03:49;;;;;;;51.92;41.08;;;;;;;17.88;100.00;101580.00;5048422;28;20400;-80
2022/08/20 07:06:15;;;;;;;60.83;43.22;;;;;;;17.93;100.00;101589.25;5049379;28;20025;-78
2022/08/20 07:08:41;;;;;;;59.20;42.47;;;;;;;17.96;100.00;101593.44;5049825;28;20525;-78
2022/08/20 07:11:07;;;;;;;61.90;42.67;;;;;;;18.00;100.00;101587.69;5049366;28;20025;-81
2022/08/20 07:13:35;;;;;;;62.03;42.05;;;;;;;17.96;100.00;101586.28;5049417;28;20017;-83
2022/08/20 07:16:00;;;;;;;54.97;42.58;;;;;;;17.91;100.00;101585.88;5051056;28;20094;-77
2022/08/20 07:18:25;;;;;;;57.70;42.25;;;;;;;17.96;100.00;101588.13;5050720;28;20135;-77
2022/08/20 07:20:55;;;;;;;59.90;43.28;;;;;;;17.96;100.00;101599.59;5049740;28;20478;-83
2022/08/20 07:23:24;;;;;;;61.58;43.47;;;;;;;18.04;100.00;101599.75;5048694;28;20394;-84
2022/08/20 07:25:50;;;;;;;57.53;43.28;;;;;;;18.09;100.00;101605.50;5050716;28;20029;-83
2022/08/20 07:28:19;;;;;;;58.13;41.85;;;;;;;18.21;100.00;101613.31;5048638;28;20028;-84
2022/08/20 07:33:30;;;;;;;60.75;42.53;;;;;;;18.40;100.00;101605.25;5049608;28;20105;-88
2022/08/20 07:36:02;;;;;;;53.03;40.78;;;;;;;18.50;100.00;101611.41;5048765;28;20640;-89
2022/08/20 07:38:29;;;;;;;51.87;39.70;;;;;;;18.50;100.00;101608.72;5049876;28;20059;-88
2022/08/20 07:41:00;;;;;;;52.78;40.35;;;;;;;18.60;100.00;101614.84;5047071;28;20036;-85
2022/08/20 07:43:27;;;;;;;55.88;39.25;;;;;;;18.70;100.00;101615.69;5046862;28;20079;-88
2022/08/20 07:45:56;;;;;;;53.65;39.10;;;;;;;18.64;100.00;101616.28;5050037;28;20043;-89
2022/08/20 07:48:27;;;;;;;46.97;37.70;;;;;;;18.72;100.00;101621.69;5046606;28;20064;-86
2022/08/20 07:51:17;;;;;;;52.47;38.92;;;;;;;18.77;100.00;101624.75;5045756;28;20021;-89
2022/08/20 07:53:45;;;;;;;53.45;37.83;;;;;;;18.67;100.00;101631.97;5044501;28;20047;-90
2022/08/20 07:56:15;;;;;;;53.20;39.20;;;;;;;18.71;100.00;101633.34;5049367;28;20028;-87
2022/08/20 07:58:48;;;;;;;48.50;37.30;;;;;;;18.78;100.00;101634.44;5054354;28;20033;-86
2022/08/20 08:01:27;;;;;;;53.10;36.30;;;;;;;18.78;100.00;101633.59;5051171;28;20020;-89
2022/08/20 08:03:53;;;;;;;45.20;35.85;;;;;;;18.90;100.00;101634.28;5043083;28;20025;-90
2022/08/20 08:06:20;;;;;;;41.15;33.70;;;;;;;19.15;100.00;101652.22;5054107;28;20036;-87
2022/08/20 08:08:46;;;;;;;40.40;31.48;;;;;;;19.51;100.00;101647.75;5070313;28;20099;-87
2022/08/20 08:11:12;;;;;;;35.20;27.70;;;;;;;19.91;96.17;101643.81;5046092;28;20394;-88
2022/08/20 08:13:40;;;;;;;27.90;22.63;;;;;;;20.12;93.24;101646.16;5055602;28;20067;-85
2022/08/20 08:16:09;;;;;;;22.83;18.88;;;;;;;20.36;90.15;101643.63;5058543;28;20688;-86
2022/08/20 08:18:55;;;;;;;28.10;19.90;;;;;;;20.70;91.47;101637.50;5051080;28;20037;-85
2022/08/20 08:21:22;;;;;;;31.10;22.45;;;;;;;21.02;87.91;101645.66;5046798;28;20020;-86
2022/08/20 08:23:57;;;;;;;22.42;17.50;;;;;;;20.96;84.37;101649.84;5046379;28;20021;-86
2022/08/20 08:26:24;;;;;;;22.23;16.65;;;;;;;20.84;86.93;101645.78;5046771;28;20478;-84
2022/08/20 08:28:57;;;;;;;22.88;17.00;;;;;;;20.89;88.39;101646.13;5050746;28;20043;-86
2022/08/20 08:31:29;;;;;;;22.23;17.25;;;;;;;21.17;84.33;101644.03;5058299;28;20028;-87
2022/08/20 08:33:55;;;;;;;22.20;17.55;;;;;;;21.46;82.36;101643.63;5046985;28;20100;-86
2022/08/20 08:36:20;;;;;;;23.90;17.60;;;;;;;21.75;81.43;101645.03;5048566;28;20108;-87
2022/08/20 08:38:46;;;;;;;26.10;17.00;;;;;;;21.91;80.81;101647.69;5048655;28;20052;-87
2022/08/20 08:41:30;;;;;;;20.60;15.10;;;;;;;22.17;80.13;101648.38;5043973;28;20036;-86
2022/08/20 08:44:12;;;;;;;20.77;14.65;;;;;;;21.94;80.88;101654.56;5037491;28;20045;-84
2022/08/20 08:46:43;;;;;;;20.27;15.68;;;;;;;21.44;79.74;101653.69;5046925;28;20025;-84
2022/08/20 08:49:23;;;;;;;19.95;14.57;;;;;;;21.20;80.10;101661.59;5045577;28;20033;-80
2022/08/20 08:51:58;;;;;;;21.98;15.45;;;;;;;20.89;83.09;101666.69;5047983;28;20470;-80
2022/08/20 08:54:28;;;;;;;22.15;15.20;;;;;;;21.19;81.26;101667.97;5048202;28;20025;-79
2022/08/20 08:56:53;;;;;;;17.55;12.80;;;;;;;21.46;79.52;101662.38;5049046;28;20029;-80
2022/08/20 08:59:20;;;;;;;17.73;13.55;;;;;;;21.81;77.57;101666.63;5047116;28;20078;-78
2022/08/20 09:01:53;;;;;;;18.95;11.02;;;;;;;22.25;75.71;101660.09;5047998;28;20103;-79
2022/08/20 09:04:23;;;;;;;16.23;10.70;;;;;;;22.57;74.24;101659.19;5049805;28;20050;-80
2022/08/20 09:06:52;;;;;;;14.15;9.38;;;;;;;22.56;71.36;101657.53;5052282;28;20484;-78
2022/08/20 09:09:35;;;;;;;14.35;9.30;;;;;;;22.44;73.03;101665.94;5051722;28;20048;-80
2022/08/20 09:12:07;;;;;;;13.77;9.52;;;;;;;22.17;71.21;101669.00;5050531;28;20106;-80
2022/08/20 09:14:33;;;;;;;17.20;9.45;;;;;;;22.41;71.07;101666.25;5050658;28;20112;-80
2022/08/20 09:16:58;;;;;;;16.75;9.50;;;;;;;22.45;68.81;101670.31;5048848;28;20443;-80
2022/08/20 09:19:24;;;;;;;15.07;8.75;;;;;;;22.63;67.36;101669.25;5051192;28;20037;-80
2022/08/20 09:21:49;;;;;;;14.85;8.30;;;;;;;22.95;68.02;101665.63;5050095;28;20025;-79
2022/08/20 09:24:15;;;;;;;13.43;7.70;;;;;;;23.09;65.36;101660.34;5049800;28;20082;-79
2022/08/20 09:26:40;;;;;;;16.42;8.30;;;;;;;22.87;64.74;101655.78;5050983;28;20494;-79
2022/08/20 09:29:05;;;;;;;13.07;7.07;;;;;;;22.94;64.24;101662.13;5050830;28;20048;-80
2022/08/20 09:31:31;;;;;;;14.15;8.45;;;;;;;22.93;65.56;101657.75;5048712;28;20386;-80
2022/08/20 09:33:56;;;;;;;16.45;8.40;;;;;;;23.20;68.64;101660.97;5050273;28;20074;-79
2022/08/20 09:36:22;;;;;;;14.45;8.82;;;;;;;23.07;65.58;101654.34;5050820;28;20104;-79
2022/08/20 09:38:47;;;;;;;14.98;9.13;;;;;;;23.25;67.37;101654.09;5050280;28;20074;-80
2022/08/20 09:41:12;;;;;;;14.07;9.60;;;;;;;23.45;66.00;101659.81;5049236;28;20052;-79
2022/08/20 09:43:38;;;;;;;14.68;8.35;;;;;;;23.49;64.58;101653.06;5049629;28;20037;-79
2022/08/20 09:46:03;;;;;;;12.02;8.13;;;;;;;23.56;65.16;101648.69;5049801;28;20017;-79
2022/08/20 09:48:28;;;;;;;11.38;7.07;;;;;;;23.57;62.07;101647.69;5050755;28;20458;-80
2022/08/20 09:50:54;;;;;;;12.80;7.57;;;;;;;23.64;65.40;101650.50;5049220;28;20028;-79
2022/08/20 09:53:20;;;;;;;14.30;9.75;;;;;;;23.62;62.97;101656.06;5048995;28;20515;-79
2022/08/20 09:55:50;;;;;;;13.95;7.80;;;;;;;23.70;65.29;101653.31;5050446;28;20078;-79
2022/08/20 09:58:37;;;;;;;8.07;4.20;;;;;;;23.80;60.75;101662.97;5049024;28;20501;-79
2022/08/20 10:01:13;;;;;;;15.15;3.65;;;;;;;23.54;53.37;101661.44;5049046;28;20078;-79
2022/08/20 10:03:40;;;;;;;11.55;5.70;;;;;;;23.49;56.51;101661.13;5048632;28;20025;-79
2022/08/20 10:06:05;;;;;;;14.88;6.30;;;;;;;23.63;57.77;101660.41;5049771;28;20094;-79
2022/08/20 10:08:31;;;;;;;11.35;6.45;;;;;;;23.80;57.21;101654.91;5051148;28;20024;-79
2022/08/20 10:10:56;;;;;;;13.93;6.82;;;;;;;23.88;58.94;101650.28;5050609;28;20047;-80
2022/08/20 10:13:22;;;;;;;17.10;7.53;;;;;;;23.94;58.14;101654.94;5047739;28;20159;-80
2022/08/20 10:15:47;;;;;;;11.15;4.45;;;;;;;24.17;57.24;101646.84;5049225;28;20554;-79
2022/08/20 10:18:12;;;;;;;11.38;5.00;;;;;;;24.44;56.04;101658.06;5045590;28;20036;-80
2022/08/20 10:20:38;;;;;;;11.85;5.40;;;;;;;24.32;57.46;101652.28;5078316;28;20409;-79
2022/08/20 10:23:04;;;;;;;13.15;5.63;;;;;;;24.42;53.92;101652.84;5040391;28;20068;-79
2022/08/20 10:25:29;;;;;;;12.82;5.80;;;;;;;24.74;54.99;101648.94;5041534;28;20775;-78
2022/08/20 10:27:55;;;;;;;14.02;5.63;;;;;;;24.84;56.65;101645.97;5048072;28;20032;-80
2022/08/20 10:30:21;;;;;;;12.07;5.18;;;;;;;24.87;55.12;101651.00;5049498;28;20070;-77
2022/08/20 10:32:47;;;;;;;10.93;4.82;;;;;;;25.22;53.36;101652.06;5048991;28;20036;-77
2022/08/20 10:35:12;;;;;;;13.02;6.25;;;;;;;25.28;52.48;101651.31;5049603;28;20158;-79
2022/08/20 10:37:37;;;;;;;12.25;5.97;;;;;;;25.22;51.61;101646.69;5049969;28;20025;-79
2022/08/20 10:40:03;;;;;;;14.07;4.82;;;;;;;25.10;51.08;101653.56;5048800;28;20040;-76
2022/08/20 10:42:29;;;;;;;18.30;4.90;;;;;;;25.14;51.16;101646.78;5081856;28;20037;-77
2022/08/20 10:44:55;;;;;;;11.52;4.18;;;;;;;25.25;51.03;101654.38;5049426;28;20048;-77
2022/08/20 10:47:26;;;;;;;10.95;4.18;;;;;;;25.34;49.79;101647.84;5047587;28;20024;-79
2022/08/20 10:49:54;;;;;;;9.00;4.30;;;;;;;25.48;49.96;101646.13;5030038;28;20025;-79
2022/08/20 10:52:20;;;;;;;9.77;3.38;;;;;;;25.86;50.72;101652.94;5030334;28;20041;-78
2022/08/20 10:54:46;;;;;;;13.88;4.10;;;;;;;25.77;49.01;101654.13;5029070;28;20021;-79
2022/08/20 10:57:21;;;;;;;9.15;2.95;;;;;;;25.52;51.24;101650.94;5036171;28;20044;-77
2022/08/20 10:59:48;;;;;;;12.63;3.95;;;;;;;25.18;49.99;101653.44;5052438;28;20037;-79
2022/08/20 11:02:14;;;;;;;8.85;3.15;;;;;;;24.94;50.83;101657.28;5047746;28;20029;-79
2022/08/20 11:04:40;;;;;;;11.95;3.40;;;;;;;25.08;48.85;101658.31;5047194;28;20482;-78
2022/08/20 11:07:20;;;;;;;13.10;3.50;;;;;;;25.20;51.36;101662.16;5049190;28;20035;-78
2022/08/20 11:09:47;;;;;;;9.57;3.10;;;;;;;25.67;48.76;101660.88;5053472;28;20060;-79
2022/08/20 11:12:13;;;;;;;9.63;3.53;;;;;;;25.71;47.89;101654.06;5049489;28;20033;-79
2022/08/20 11:14:38;;;;;;;9.88;2.65;;;;;;;25.41;47.95;101654.13;5048952;28;20013;-79
2022/08/20 11:17:04;;;;;;;11.98;2.60;;;;;;;24.95;47.44;101654.41;5048253;28;20032;-79